sensor_id;sensor_type;location;lat;lon;timestamp;pressure;altitude;pressure_sealevel;temperature;humidity
9189;BME280;34313;50.780;6.084;2022-08-23T00:01:58;99339.91;;;18.94;61.17
9189;BME280;34313;50.780;6.084;2022-08-23T00:04:27;99338.63;;;18.88;61.39
9189;BME280;34313;50.780;6.084;2022-08-23T00:06:54;99334.84;;;18.81;61.56
9189;BME280;34313;50.780;6.084;2022-08-23T00:09:21;99336.00;;;18.78;61.71
9189;BME280;34313;50.780;6.084;2022-08-23T00:11:50;99332.09;;;18.73;61.81
9189;BME280;34313;50.780;6.084;2022-08-23T00:14:23;99327.03;;;18.69;62.02
9189;BME280;34313;50.780;6.084;2022-08-23T00:16:50;99326.34;;;18.67;61.91
9189;BME280;34313;50.780;6.084;2022-08-23T00:19:16;99324.78;;;18.65;61.81
9189;BME280;34313;50.780;6.084;2022-08-23T00:21:43;99328.47;;;18.64;61.89
9189;BME280;34313;50.780;6.084;2022-08-23T00:24:10;99323.25;;;18.62;61.78
9189;BME280;34313;50.780;6.084;2022-08-23T00:29:30;99320.19;;;18.57;61.89
9189;BME280;34313;50.780;6.084;2022-08-23T00:31:56;99325.66;;;18.56;61.63
9189;BME280;34313;50.780;6.084;2022-08-23T00:34:22;99320.34;;;18.56;61.75
9189;BME280;34313;50.780;6.084;2022-08-23T00:36:48;99319.34;;;18.57;61.45
9189;BME280;34313;50.780;6.084;2022-08-23T00:39:15;99317.66;;;18.56;61.46
9189;BME280;34313;50.780;6.084;2022-08-23T00:41:41;99319.78;;;18.52;61.33
9189;BME280;34313;50.780;6.084;2022-08-23T00:44:14;99320.06;;;18.49;61.07
9189;BME280;34313;50.780;6.084;2022-08-23T00:47:01;99308.44;;;18.40;61.23
9189;BME280;34313;50.780;6.084;2022-08-23T00:49:50;99309.28;;;18.41;60.80
9189;BME280;34313;50.780;6.084;2022-08-23T00:52:23;99311.50;;;18.45;60.25
9189;BME280;34313;50.780;6.084;2022-08-23T00:54:52;99309.56;;;18.38;60.34
9189;BME280;34313;50.780;6.084;2022-08-23T00:57:18;99305.94;;;18.29;60.63
9189;BME280;34313;50.780;6.084;2022-08-23T00:59:44;99302.03;;;18.23;60.73
9189;BME280;34313;50.780;6.084;2022-08-23T01:02:11;99317.44;;;18.20;61.00
9189;BME280;34313;50.780;6.084;2022-08-23T01:04:40;99313.38;;;18.16;60.97
9189;BME280;34313;50.780;6.084;2022-08-23T01:07:19;99319.88;;;18.13;60.92
9189;BME280;34313;50.780;6.084;2022-08-23T01:09:50;99323.38;;;18.13;60.98
9189;BME280;34313;50.780;6.084;2022-08-23T01:12:26;99318.75;;;18.06;61.07
9189;BME280;34313;50.780;6.084;2022-08-23T01:15:03;99314.81;;;18.00;61.39
9189;BME280;34313;50.780;6.084;2022-08-23T01:17:44;99320.44;;;17.97;61.86
9189;BME280;34313;50.780;6.084;2022-08-23T01:20:18;99320.72;;;17.94;62.13
9189;BME280;34313;50.780;6.084;2022-08-23T01:23:01;99317.50;;;17.90;62.54
9189;BME280;34313;50.780;6.084;2022-08-23T01:25:29;99319.72;;;17.85;62.90
9189;BME280;34313;50.780;6.084;2022-08-23T01:27:56;99318.31;;;17.81;63.25
9189;BME280;34313;50.780;6.084;2022-08-23T01:30:25;99332.22;;;17.85;62.92
9189;BME280;34313;50.780;6.084;2022-08-23T01:32:56;99335.59;;;17.87;63.01
9189;BME280;34313;50.780;6.084;2022-08-23T01:35:36;99325.19;;;17.84;63.06
9189;BME280;34313;50.780;6.084;2022-08-23T01:38:05;99333.03;;;17.85;63.21
9189;BME280;34313;50.780;6.084;2022-08-23T01:40:31;99339.34;;;17.84;63.25
9189;BME280;34313;50.780;6.084;2022-08-23T01:42:57;99338.78;;;17.81;63.42
9189;BME280;34313;50.780;6.084;2022-08-23T01:45:23;99339.34;;;17.74;63.49
9189;BME280;34313;50.780;6.084;2022-08-23T01:47:48;99337.94;;;17.70;64.01
9189;BME280;34313;50.780;6.084;2022-08-23T01:50:14;99340.88;;;17.67;63.90
9189;BME280;34313;50.780;6.084;2022-08-23T01:52:40;99338.22;;;17.67;64.10
9189;BME280;34313;50.780;6.084;2022-08-23T01:55:07;99334.84;;;17.65;64.26
9189;BME280;34313;50.780;6.084;2022-08-23T01:57:33;99332.47;;;17.62;64.32
9189;BME280;34313;50.780;6.084;2022-08-23T01:59:59;99337.81;;;17.62;64.24
9189;BME280;34313;50.780;6.084;2022-08-23T02:02:25;99329.38;;;17.57;64.24
9189;BME280;34313;50.780;6.084;2022-08-23T02:04:50;99324.19;;;17.55;64.52
9189;BME280;34313;50.780;6.084;2022-08-23T02:07:17;99329.66;;;17.54;64.49
9189;BME280;34313;50.780;6.084;2022-08-23T02:09:42;99328.25;;;17.50;64.74
9189;BME280;34313;50.780;6.084;2022-08-23T02:12:07;99327.38;;;17.49;64.76
9189;BME280;34313;50.780;6.084;2022-08-23T02:14:33;99334.41;;;17.50;64.90
9189;BME280;34313;50.780;6.084;2022-08-23T02:17:01;99335.69;;;17.46;64.91
9189;BME280;34313;50.780;6.084;2022-08-23T02:19:27;99343.09;;;17.43;65.09
9189;BME280;34313;50.780;6.084;2022-08-23T02:21:52;99340.00;;;17.37;65.34
9189;BME280;34313;50.780;6.084;2022-08-23T02:24:20;99352.31;;;17.38;65.79
9189;BME280;34313;50.780;6.084;2022-08-23T02:26:50;99349.94;;;17.35;65.86
9189;BME280;34313;50.780;6.084;2022-08-23T02:29:20;99351.63;;;17.36;65.87
9189;BME280;34313;50.780;6.084;2022-08-23T02:31:47;99349.78;;;17.37;65.80
9189;BME280;34313;50.780;6.084;2022-08-23T02:34:14;99346.72;;;17.42;65.76
9189;BME280;34313;50.780;6.084;2022-08-23T02:36:41;99346.88;;;17.40;65.63
9189;BME280;34313;50.780;6.084;2022-08-23T02:39:08;99342.25;;;17.42;65.89
9189;BME280;34313;50.780;6.084;2022-08-23T02:41:34;99339.56;;;17.42;65.83
9189;BME280;34313;50.780;6.084;2022-08-23T02:44:00;99341.66;;;17.38;66.00
9189;BME280;34313;50.780;6.084;2022-08-23T02:46:26;99338.31;;;17.36;66.07
9189;BME280;34313;50.780;6.084;2022-08-23T02:48:52;99339.00;;;17.38;66.12
9189;BME280;34313;50.780;6.084;2022-08-23T02:51:18;99346.03;;;17.39;66.12
9189;BME280;34313;50.780;6.084;2022-08-23T02:53:44;99341.53;;;17.40;66.10
9189;BME280;34313;50.780;6.084;2022-08-23T02:56:10;99343.66;;;17.46;65.89
9189;BME280;34313;50.780;6.084;2022-08-23T02:58:37;99342.53;;;17.49;65.72
9189;BME280;34313;50.780;6.084;2022-08-23T03:01:03;99340.84;;;17.48;65.33
9189;BME280;34313;50.780;6.084;2022-08-23T03:03:28;99339.03;;;17.48;65.26
9189;BME280;34313;50.780;6.084;2022-08-23T03:05:54;99350.25;;;17.52;65.14
9189;BME280;34313;50.780;6.084;2022-08-23T03:08:20;99342.28;;;17.52;65.01
9189;BME280;34313;50.780;6.084;2022-08-23T03:10:48;99339.59;;;17.52;64.73
9189;BME280;34313;50.780;6.084;2022-08-23T03:13:14;99345.50;;;17.55;64.60
9189;BME280;34313;50.780;6.084;2022-08-23T03:15:40;99337.78;;;17.52;64.31
9189;BME280;34313;50.780;6.084;2022-08-23T03:18:07;99346.06;;;17.59;64.19
9189;BME280;34313;50.780;6.084;2022-08-23T03:20:33;99344.09;;;17.61;64.16
9189;BME280;34313;50.780;6.084;2022-08-23T03:22:59;99340.59;;;17.61;64.25
9189;BME280;34313;50.780;6.084;2022-08-23T03:25:25;99343.66;;;17.56;64.16
9189;BME280;34313;50.780;6.084;2022-08-23T03:27:50;99351.53;;;17.57;64.04
9189;BME280;34313;50.780;6.084;2022-08-23T03:30:16;99348.03;;;17.57;64.19
9189;BME280;34313;50.780;6.084;2022-08-23T03:32:41;99348.47;;;17.62;64.18
9189;BME280;34313;50.780;6.084;2022-08-23T03:35:07;99349.16;;;17.64;64.14
9189;BME280;34313;50.780;6.084;2022-08-23T03:37:32;99359.25;;;17.70;64.09
9189;BME280;34313;50.780;6.084;2022-08-23T03:39:58;99363.34;;;17.74;64.23
9189;BME280;34313;50.780;6.084;2022-08-23T03:42:24;99371.78;;;17.80;63.92
9189;BME280;34313;50.780;6.084;2022-08-23T03:44:49;99377.25;;;17.88;63.70
9189;BME280;34313;50.780;6.084;2022-08-23T03:47:15;99366.03;;;17.94;63.26
9189;BME280;34313;50.780;6.084;2022-08-23T03:49:40;99371.53;;;18.02;63.16
9189;BME280;34313;50.780;6.084;2022-08-23T03:52:07;99375.19;;;18.11;63.13
9189;BME280;34313;50.780;6.084;2022-08-23T03:54:32;99380.91;;;18.16;62.90
9189;BME280;34313;50.780;6.084;2022-08-23T03:57:00;99380.09;;;18.25;62.74
9189;BME280;34313;50.780;6.084;2022-08-23T03:59:27;99380.78;;;18.27;62.54
9189;BME280;34313;50.780;6.084;2022-08-23T04:01:53;99389.06;;;18.34;62.41
9189;BME280;34313;50.780;6.084;2022-08-23T04:04:18;99388.06;;;18.35;62.30
9189;BME280;34313;50.780;6.084;2022-08-23T04:06:44;99390.72;;;18.35;62.26
9189;BME280;34313;50.780;6.084;2022-08-23T04:09:11;99386.38;;;18.34;62.30
9189;BME280;34313;50.780;6.084;2022-08-23T04:11:37;99386.38;;;18.34;62.32
9189;BME280;34313;50.780;6.084;2022-08-23T04:14:03;99397.75;;;18.36;62.27
9189;BME280;34313;50.780;6.084;2022-08-23T04:16:29;99403.22;;;18.35;62.33
9189;BME280;34313;50.780;6.084;2022-08-23T04:18:57;99400.44;;;18.36;62.37
9189;BME280;34313;50.780;6.084;2022-08-23T04:21:23;99403.78;;;18.38;62.31
9189;BME280;34313;50.780;6.084;2022-08-23T04:23:49;99403.38;;;18.43;62.26
9189;BME280;34313;50.780;6.084;2022-08-23T04:26:14;99408.03;;;18.41;62.31
9189;BME280;34313;50.780;6.084;2022-08-23T04:28:39;99406.59;;;18.37;62.31
9189;BME280;34313;50.780;6.084;2022-08-23T04:31:05;99410.25;;;18.36;62.39
9189;BME280;34313;50.780;6.084;2022-08-23T04:33:31;99412.75;;;18.37;62.34
9189;BME280;34313;50.780;6.084;2022-08-23T04:36:00;99415.03;;;18.42;62.46
9189;BME280;34313;50.780;6.084;2022-08-23T04:38:26;99415.03;;;18.42;62.49
9189;BME280;34313;50.780;6.084;2022-08-23T04:40:53;99409.69;;;18.42;62.47
9189;BME280;34313;50.780;6.084;2022-08-23T04:43:37;99407.16;;;18.40;62.18
9189;BME280;34313;50.780;6.084;2022-08-23T04:46:03;99416.97;;;18.49;62.41
9189;BME280;34313;50.780;6.084;2022-08-23T04:48:29;99420.22;;;18.53;62.14
9189;BME280;34313;50.780;6.084;2022-08-23T04:50:55;99422.31;;;18.59;61.96
9189;BME280;34313;50.780;6.084;2022-08-23T04:53:20;99428.19;;;18.63;61.63
9189;BME280;34313;50.780;6.084;2022-08-23T04:55:46;99427.66;;;18.69;61.57
9189;BME280;34313;50.780;6.084;2022-08-23T04:58:11;99430.41;;;18.77;61.34
9189;BME280;34313;50.780;6.084;2022-08-23T05:00:37;99431.97;;;18.80;61.08
9189;BME280;34313;50.780;6.084;2022-08-23T05:03:03;99426.63;;;18.89;60.62
9189;BME280;34313;50.780;6.084;2022-08-23T05:05:29;99430.81;;;19.02;60.54
9189;BME280;34313;50.780;6.084;2022-08-23T05:07:54;99429.63;;;19.14;60.01
9189;BME280;34313;50.780;6.084;2022-08-23T05:10:19;99432.63;;;19.67;59.24
9189;BME280;34313;50.780;6.084;2022-08-23T05:12:45;99431.50;;;20.95;56.20
9189;BME280;34313;50.780;6.084;2022-08-23T05:15:11;99432.34;;;22.73;52.21
9189;BME280;34313;50.780;6.084;2022-08-23T05:17:37;99437.69;;;23.93;48.52
9189;BME280;34313;50.780;6.084;2022-08-23T05:20:05;99440.75;;;23.90;47.51
9189;BME280;34313;50.780;6.084;2022-08-23T05:22:35;99447.97;;;23.50;47.96
9189;BME280;34313;50.780;6.084;2022-08-23T05:25:01;99445.19;;;23.66;47.75
9189;BME280;34313;50.780;6.084;2022-08-23T05:27:26;99453.41;;;24.12;46.78
9189;BME280;34313;50.780;6.084;2022-08-23T05:29:52;99439.78;;;25.28;44.56
9189;BME280;34313;50.780;6.084;2022-08-23T05:32:20;99451.47;;;26.16;42.62
9189;BME280;34313;50.780;6.084;2022-08-23T05:34:47;99459.00;;;26.64;41.22
9189;BME280;34313;50.780;6.084;2022-08-23T05:37:13;99463.00;;;26.47;41.42
9189;BME280;34313;50.780;6.084;2022-08-23T05:39:39;99458.06;;;27.77;39.44
9189;BME280;34313;50.780;6.084;2022-08-23T05:42:06;99465.25;;;29.78;35.74
9189;BME280;34313;50.780;6.084;2022-08-23T05:44:32;99469.03;;;31.66;32.37
9189;BME280;34313;50.780;6.084;2022-08-23T05:46:57;99469.06;;;33.52;29.16
9189;BME280;34313;50.780;6.084;2022-08-23T05:49:22;99463.56;;;35.18;27.05
9189;BME280;34313;50.780;6.084;2022-08-23T05:51:48;99475.59;;;36.49;24.84
9189;BME280;34313;50.780;6.084;2022-08-23T05:54:13;99466.72;;;37.55;23.20
9189;BME280;34313;50.780;6.084;2022-08-23T05:56:40;99465.56;;;37.45;23.11
9189;BME280;34313;50.780;6.084;2022-08-23T05:59:09;99477.22;;;36.45;23.88
9189;BME280;34313;50.780;6.084;2022-08-23T06:01:36;99475.88;;;35.15;25.13
9189;BME280;34313;50.780;6.084;2022-08-23T06:04:04;99472.69;;;33.81;26.44
9189;BME280;34313;50.780;6.084;2022-08-23T06:06:31;99474.53;;;32.69;28.23
9189;BME280;34313;50.780;6.084;2022-08-23T06:08:58;99473.31;;;32.23;28.94
9189;BME280;34313;50.780;6.084;2022-08-23T06:11:26;99478.03;;;31.67;29.74
9189;BME280;34313;50.780;6.084;2022-08-23T06:13:54;99480.66;;;31.37;30.44
9189;BME280;34313;50.780;6.084;2022-08-23T06:16:32;99474.31;;;30.99;30.97
9189;BME280;34313;50.780;6.084;2022-08-23T06:18:59;99488.03;;;30.54;31.77
9189;BME280;34313;50.780;6.084;2022-08-23T06:21:28;99487.78;;;30.24;32.24
9189;BME280;34313;50.780;6.084;2022-08-23T06:23:54;99488.38;;;29.87;32.89
9189;BME280;34313;50.780;6.084;2022-08-23T06:26:25;99494.72;;;29.68;33.50
9189;BME280;34313;50.780;6.084;2022-08-23T06:28:53;99495.59;;;29.55;33.68
9189;BME280;34313;50.780;6.084;2022-08-23T06:31:21;99483.13;;;29.27;33.81
9189;BME280;34313;50.780;6.084;2022-08-23T06:34:07;99493.34;;;29.38;33.97
9189;BME280;34313;50.780;6.084;2022-08-23T06:36:33;99499.81;;;29.31;33.80
9189;BME280;34313;50.780;6.084;2022-08-23T06:38:58;99497.31;;;29.22;33.91
9189;BME280;34313;50.780;6.084;2022-08-23T06:41:24;99493.56;;;29.17;34.09
9189;BME280;34313;50.780;6.084;2022-08-23T06:43:50;99491.28;;;29.00;34.23
9189;BME280;34313;50.780;6.084;2022-08-23T06:46:22;99496.69;;;28.80;34.95
9189;BME280;34313;50.780;6.084;2022-08-23T06:48:48;99490.38;;;28.33;35.48
9189;BME280;34313;50.780;6.084;2022-08-23T06:51:21;99496.66;;;27.85;36.14
9189;BME280;34313;50.780;6.084;2022-08-23T06:53:48;99493.53;;;27.19;37.57
9189;BME280;34313;50.780;6.084;2022-08-23T06:56:13;99486.69;;;26.66;38.73
9189;BME280;34313;50.780;6.084;2022-08-23T06:58:39;99489.84;;;26.12;39.62
9189;BME280;34313;50.780;6.084;2022-08-23T07:01:10;99499.31;;;25.86;40.39
9189;BME280;34313;50.780;6.084;2022-08-23T07:03:35;99496.16;;;25.38;41.64
9189;BME280;34313;50.780;6.084;2022-08-23T07:06:01;99499.25;;;25.12;42.10
9189;BME280;34313;50.780;6.084;2022-08-23T07:08:26;99495.63;;;25.04;42.49
9189;BME280;34313;50.780;6.084;2022-08-23T07:10:54;99501.38;;;25.01;43.00
9189;BME280;34313;50.780;6.084;2022-08-23T07:13:20;99498.00;;;24.84;43.26
9189;BME280;34313;50.780;6.084;2022-08-23T07:15:47;99499.66;;;24.85;43.25
9189;BME280;34313;50.780;6.084;2022-08-23T07:18:12;99495.63;;;24.89;43.52
9189;BME280;34313;50.780;6.084;2022-08-23T07:20:37;99497.09;;;25.07;43.20
9189;BME280;34313;50.780;6.084;2022-08-23T07:23:03;99497.16;;;25.66;42.32
9189;BME280;34313;50.780;6.084;2022-08-23T07:25:29;99501.84;;;26.89;40.19
9189;BME280;34313;50.780;6.084;2022-08-23T07:27:56;99501.53;;;27.27;39.04
9189;BME280;34313;50.780;6.084;2022-08-23T07:30:22;99501.09;;;28.00;37.84
9189;BME280;34313;50.780;6.084;2022-08-23T07:32:47;99500.84;;;27.88;37.52
9189;BME280;34313;50.780;6.084;2022-08-23T07:35:13;99506.38;;;27.31;38.54
9189;BME280;34313;50.780;6.084;2022-08-23T07:37:38;99503.03;;;27.08;38.96
9189;BME280;34313;50.780;6.084;2022-08-23T07:40:04;99510.75;;;26.83;39.89
9189;BME280;34313;50.780;6.084;2022-08-23T07:42:32;99512.13;;;26.72;40.07
9189;BME280;34313;50.780;6.084;2022-08-23T07:44:57;99514.31;;;26.62;40.20
9189;BME280;34313;50.780;6.084;2022-08-23T07:47:23;99514.31;;;26.62;40.42
9189;BME280;34313;50.780;6.084;2022-08-23T07:49:48;99518.38;;;26.72;40.47
9189;BME280;34313;50.780;6.084;2022-08-23T07:52:14;99523.53;;;27.87;38.38
9189;BME280;34313;50.780;6.084;2022-08-23T07:54:39;99516.78;;;31.25;33.25
9189;BME280;34313;50.780;6.084;2022-08-23T07:57:04;99516.72;;;35.34;26.69
9189;BME280;34313;50.780;6.084;2022-08-23T07:59:30;99524.59;;;39.05;22.82
9189;BME280;34313;50.780;6.084;2022-08-23T08:01:55;99520.41;;;41.95;19.22
9189;BME280;34313;50.780;6.084;2022-08-23T08:04:21;99524.09;;;43.88;17.13
9189;BME280;34313;50.780;6.084;2022-08-23T08:06:47;99519.25;;;44.89;15.60
9189;BME280;34313;50.780;6.084;2022-08-23T08:09:14;99528.53;;;45.38;15.31
9189;BME280;34313;50.780;6.084;2022-08-23T08:11:43;99530.84;;;46.81;14.12
9189;BME280;34313;50.780;6.084;2022-08-23T08:14:10;99529.38;;;47.78;13.44
9189;BME280;34313;50.780;6.084;2022-08-23T08:16:40;99528.06;;;48.47;12.50
9189;BME280;34313;50.780;6.084;2022-08-23T08:19:08;99532.13;;;48.71;12.46
9189;BME280;34313;50.780;6.084;2022-08-23T08:21:35;99528.16;;;49.18;11.67
9189;BME280;34313;50.780;6.084;2022-08-23T08:24:01;99517.94;;;47.71;12.76
9189;BME280;34313;50.780;6.084;2022-08-23T08:26:27;99525.28;;;45.94;13.95
9189;BME280;34313;50.780;6.084;2022-08-23T08:28:53;99523.19;;;45.59;14.48
9189;BME280;34313;50.780;6.084;2022-08-23T08:31:23;99522.84;;;46.62;13.77
9189;BME280;34313;50.780;6.084;2022-08-23T08:33:49;99525.69;;;47.86;12.97
9189;BME280;34313;50.780;6.084;2022-08-23T08:38:52;99519.69;;;48.47;12.46
9189;BME280;34313;50.780;6.084;2022-08-23T08:41:24;99521.44;;;48.31;12.21
9189;BME280;34313;50.780;6.084;2022-08-23T08:44:06;99525.47;;;48.21;12.37
9189;BME280;34313;50.780;6.084;2022-08-23T08:46:49;99526.44;;;48.46;12.22
9189;BME280;34313;50.780;6.084;2022-08-23T08:49:48;99519.78;;;47.88;12.58
9189;BME280;34313;50.780;6.084;2022-08-23T08:52:23;99510.03;;;47.73;12.33
9189;BME280;34313;50.780;6.084;2022-08-23T08:54:55;99518.91;;;46.46;13.53
9189;BME280;34313;50.780;6.084;2022-08-23T08:57:22;99521.72;;;46.28;13.86
9189;BME280;34313;50.780;6.084;2022-08-23T08:59:59;99517.63;;;46.43;13.75
9189;BME280;34313;50.780;6.084;2022-08-23T09:02:30;99518.00;;;47.15;12.91
9189;BME280;34313;50.780;6.084;2022-08-23T09:04:57;99514.44;;;46.97;13.24
9189;BME280;34313;50.780;6.084;2022-08-23T09:07:41;99515.63;;;46.87;13.39
9189;BME280;34313;50.780;6.084;2022-08-23T09:15:22;99520.06;;;45.52;14.08
9189;BME280;34313;50.780;6.084;2022-08-23T09:17:55;99504.97;;;44.36;14.98
9189;BME280;34313;50.780;6.084;2022-08-23T09:20:22;99515.75;;;44.02;15.49
9189;BME280;34313;50.780;6.084;2022-08-23T09:22:51;99509.28;;;43.92;15.60
9189;BME280;34313;50.780;6.084;2022-08-23T09:25:22;99511.28;;;43.50;15.96
9189;BME280;34313;50.780;6.084;2022-08-23T09:27:48;99504.97;;;43.31;16.12
9189;BME280;34313;50.780;6.084;2022-08-23T09:30:16;99509.13;;;42.67;16.58
9189;BME280;34313;50.780;6.084;2022-08-23T09:32:44;99503.13;;;42.60;16.53
9189;BME280;34313;50.780;6.084;2022-08-23T09:35:18;99506.72;;;41.61;17.46
9189;BME280;34313;50.780;6.084;2022-08-23T09:37:54;99505.03;;;40.42;18.24
9189;BME280;34313;50.780;6.084;2022-08-23T09:40:44;99506.13;;;38.65;20.27
9189;BME280;34313;50.780;6.084;2022-08-23T09:45:53;99496.53;;;37.31;21.61
9189;BME280;34313;50.780;6.084;2022-08-23T09:54:05;99504.88;;;36.16;23.13
9189;BME280;34313;50.780;6.084;2022-08-23T09:56:35;99505.84;;;36.55;22.76
9189;BME280;34313;50.780;6.084;2022-08-23T09:59:02;99496.31;;;36.35;23.24
9189;BME280;34313;50.780;6.084;2022-08-23T10:01:30;99503.03;;;36.77;22.83
9189;BME280;34313;50.780;6.084;2022-08-23T10:04:07;99500.66;;;36.31;23.05
9189;BME280;34313;50.780;6.084;2022-08-23T10:06:33;99495.03;;;35.93;23.67
9189;BME280;34313;50.780;6.084;2022-08-23T10:08:59;99500.03;;;36.24;23.03
9189;BME280;34313;50.780;6.084;2022-08-23T10:11:31;99493.22;;;35.60;23.55
9189;BME280;34313;50.780;6.084;2022-08-23T10:13:58;99478.88;;;35.53;24.14
9189;BME280;34313;50.780;6.084;2022-08-23T10:17:06;99489.28;;;35.73;24.32
9189;BME280;34313;50.780;6.084;2022-08-23T10:19:34;99487.41;;;35.73;24.08
9189;BME280;34313;50.780;6.084;2022-08-23T10:22:28;99495.47;;;35.63;24.28
9189;BME280;34313;50.780;6.084;2022-08-23T10:33:45;99489.84;;;34.80;24.76
9189;BME280;34313;50.780;6.084;2022-08-23T10:36:17;99493.00;;;34.89;25.04
9189;BME280;34313;50.780;6.084;2022-08-23T10:39:02;99484.56;;;34.73;25.12
9189;BME280;34313;50.780;6.084;2022-08-23T10:41:45;99495.66;;;34.09;25.57
9189;BME280;34313;50.780;6.084;2022-08-23T10:44:23;99498.53;;;34.02;25.98
9189;BME280;34313;50.780;6.084;2022-08-23T10:47:21;99484.34;;;33.77;25.80
9189;BME280;34313;50.780;6.084;2022-08-23T10:49:45;99479.28;;;33.45;26.44
9189;BME280;34313;50.780;6.084;2022-08-23T10:52:18;99474.09;;;33.20;27.30
9189;BME280;34313;50.780;6.084;2022-08-23T10:54:48;99484.88;;;33.03;27.06
9189;BME280;34313;50.780;6.084;2022-08-23T10:57:31;99477.41;;;32.98;26.97
9189;BME280;34313;50.780;6.084;2022-08-23T10:59:58;99487.34;;;32.92;27.38
9189;BME280;34313;50.780;6.084;2022-08-23T11:07:55;99475.84;;;32.78;27.68
9189;BME280;34313;50.780;6.084;2022-08-23T11:15:41;99479.91;;;32.46;28.00
9189;BME280;34313;50.780;6.084;2022-08-23T11:18:10;99475.38;;;32.70;28.25
9189;BME280;34313;50.780;6.084;2022-08-23T11:21:00;99481.53;;;32.89;27.33
9189;BME280;34313;50.780;6.084;2022-08-23T11:23:37;99472.25;;;32.66;27.61
9189;BME280;34313;50.780;6.084;2022-08-23T11:26:06;99464.94;;;32.78;27.72
9189;BME280;34313;50.780;6.084;2022-08-23T11:28:44;99470.00;;;32.75;27.94
9189;BME280;34313;50.780;6.084;2022-08-23T11:31:17;99481.19;;;32.73;27.73
9189;BME280;34313;50.780;6.084;2022-08-23T11:33:46;99477.84;;;32.83;27.49
9189;BME280;34313;50.780;6.084;2022-08-23T11:36:17;99467.94;;;32.58;27.77
9189;BME280;34313;50.780;6.084;2022-08-23T11:43:40;99464.81;;;32.73;27.70
9189;BME280;34313;50.780;6.084;2022-08-23T11:48:56;99463.91;;;32.49;28.20
9189;BME280;34313;50.780;6.084;2022-08-23T11:54:26;99468.56;;;32.18;28.40
9189;BME280;34313;50.780;6.084;2022-08-23T12:07:50;99455.88;;;32.66;27.97
9189;BME280;34313;50.780;6.084;2022-08-23T12:10:56;99450.44;;;32.66;27.80
9189;BME280;34313;50.780;6.084;2022-08-23T12:16:09;99446.75;;;32.18;27.99
9189;BME280;34313;50.780;6.084;2022-08-23T12:21:32;99453.88;;;32.01;28.33
9189;BME280;34313;50.780;6.084;2022-08-23T12:24:02;99454.75;;;31.83;28.89
9189;BME280;34313;50.780;6.084;2022-08-23T12:29:20;99443.19;;;31.69;29.09
9189;BME280;34313;50.780;6.084;2022-08-23T12:32:01;99441.50;;;31.31;29.77
9189;BME280;34313;50.780;6.084;2022-08-23T12:34:42;99445.09;;;31.50;29.52
9189;BME280;34313;50.780;6.084;2022-08-23T12:39:59;99441.50;;;32.59;28.15
9189;BME280;34313;50.780;6.084;2022-08-23T12:42:31;99435.03;;;33.19;27.15
9189;BME280;34313;50.780;6.084;2022-08-23T12:47:36;99444.19;;;33.77;26.25
9189;BME280;34313;50.780;6.084;2022-08-23T12:50:34;99446.16;;;33.94;25.77
9189;BME280;34313;50.780;6.084;2022-08-23T12:53:08;99449.50;;;34.13;25.57
9189;BME280;34313;50.780;6.084;2022-08-23T12:55:44;99444.63;;;34.15;25.37
9189;BME280;34313;50.780;6.084;2022-08-23T12:58:13;99449.03;;;34.16;25.40
9189;BME280;34313;50.780;6.084;2022-08-23T13:00:43;99457.69;;;34.24;25.28
9189;BME280;34313;50.780;6.084;2022-08-23T13:03:23;99446.94;;;34.52;25.22
9189;BME280;34313;50.780;6.084;2022-08-23T13:05:56;99446.34;;;34.66;24.64
9189;BME280;34313;50.780;6.084;2022-08-23T13:08:31;99442.56;;;34.84;24.44
9189;BME280;34313;50.780;6.084;2022-08-23T13:10:57;99450.56;;;35.08;24.15
9189;BME280;34313;50.780;6.084;2022-08-23T13:13:25;99448.81;;;35.19;24.22
9189;BME280;34313;50.780;6.084;2022-08-23T13:15:55;99458.38;;;34.99;24.21
9189;BME280;34313;50.780;6.084;2022-08-23T13:18:28;99448.41;;;34.25;24.73
9189;BME280;34313;50.780;6.084;2022-08-23T13:23:58;99447.72;;;32.90;26.76
9189;BME280;34313;50.780;6.084;2022-08-23T13:29:04;99452.06;;;33.50;25.95
9189;BME280;34313;50.780;6.084;2022-08-23T13:31:56;99448.06;;;33.93;25.65
9189;BME280;34313;50.780;6.084;2022-08-23T13:34:44;99436.78;;;33.89;25.30
9189;BME280;34313;50.780;6.084;2022-08-23T13:37:20;99440.38;;;34.07;25.69
9189;BME280;34313;50.780;6.084;2022-08-23T13:39:51;99435.44;;;33.92;25.41
9189;BME280;34313;50.780;6.084;2022-08-23T13:45:28;99436.66;;;34.76;24.33
9189;BME280;34313;50.780;6.084;2022-08-23T13:47:58;99444.19;;;34.69;24.17
9189;BME280;34313;50.780;6.084;2022-08-23T13:50:33;99444.69;;;34.32;24.52
9189;BME280;34313;50.780;6.084;2022-08-23T13:52:59;99447.50;;;34.37;24.72
9189;BME280;34313;50.780;6.084;2022-08-23T13:55:26;99438.41;;;34.31;24.75
9189;BME280;34313;50.780;6.084;2022-08-23T13:57:52;99429.34;;;34.31;24.62
9189;BME280;34313;50.780;6.084;2022-08-23T14:00:18;99433.84;;;34.37;25.11
9189;BME280;34313;50.780;6.084;2022-08-23T14:02:44;99440.88;;;34.50;24.47
9189;BME280;34313;50.780;6.084;2022-08-23T14:05:16;99448.00;;;34.67;24.18
9189;BME280;34313;50.780;6.084;2022-08-23T14:07:43;99448.44;;;34.59;24.25
9189;BME280;34313;50.780;6.084;2022-08-23T14:10:08;99448.69;;;34.58;24.20
9189;BME280;34313;50.780;6.084;2022-08-23T14:12:34;99447.91;;;34.62;24.26
9189;BME280;34313;50.780;6.084;2022-08-23T14:15:02;99448.78;;;34.63;24.03
9189;BME280;34313;50.780;6.084;2022-08-23T14:17:28;99448.78;;;34.80;23.91
9189;BME280;34313;50.780;6.084;2022-08-23T14:19:55;99436.03;;;35.08;23.80
9189;BME280;34313;50.780;6.084;2022-08-23T14:22:20;99448.78;;;34.80;23.72
9189;BME280;34313;50.780;6.084;2022-08-23T14:24:46;99449.50;;;34.92;23.93
9189;BME280;34313;50.780;6.084;2022-08-23T14:27:11;99442.28;;;34.69;23.86
9189;BME280;34313;50.780;6.084;2022-08-23T14:29:37;99456.22;;;34.34;24.26
9189;BME280;34313;50.780;6.084;2022-08-23T14:32:03;99446.94;;;33.77;25.15
9189;BME280;34313;50.780;6.084;2022-08-23T14:34:29;99439.28;;;33.39;25.57
9189;BME280;34313;50.780;6.084;2022-08-23T14:36:55;99447.63;;;33.08;26.17
9189;BME280;34313;50.780;6.084;2022-08-23T14:39:21;99434.56;;;32.98;26.40
9189;BME280;34313;50.780;6.084;2022-08-23T14:41:47;99441.69;;;33.00;26.08
9189;BME280;34313;50.780;6.084;2022-08-23T14:44:13;99446.41;;;33.04;26.28